Diamantis P — A8WA2 — position and weather

sailwx.info

Track history (hours):
 
Tides and Currents Weather Stations Pressure Air Temp Water Temp Dewpoint Dewpoint Depression Visibility Wind Speed Wind Dir Waves Ship Positions

Diamantis P

Last reported at 2018-Feb-20 06:33 UTC. Time now 2018-Feb-24 15:41 UTC.
Position N 37°39' E 023°43'.

Length 188 m; draft 9.2 m.

Type: Cargo ship. MMSI: 636014699.

Date/timePositionNaut miles runAvg speedWind from/ knotsBaromVisibWave heightAir tempDewpointWater temp
2018-Feb-20 06:33N 37°39' E 023°43'114.0
2018-Feb-20 06:30N 37°40' E 023°42'714.2
2018-Feb-20 06:01N 37°46' E 023°38'714.0
2018-Feb-20 05:30N 37°53' E 023°37'4 8.7
2018-Feb-20 05:00N 37°57' E 023°35'0 0.5
2018-Feb-20 04:29N 37°57' E 023°35'0 0.0
2018-Feb-20 03:59N 37°57' E 023°35'0 0.0
2018-Feb-20 03:29N 37°57' E 023°35'0 0.0
2018-Feb-20 02:59N 37°57' E 023°35'0 0.0
2018-Feb-20 02:29N 37°57' E 023°35'0 0.0
2018-Feb-20 01:59N 37°57' E 023°35'0 0.0
2018-Feb-20 01:29N 37°57' E 023°35'0 0.0
2018-Feb-20 00:59N 37°57' E 023°35'0 0.0
2018-Feb-20 00:29N 37°57' E 023°35'0 0.0
2018-Feb-19 23:59N 37°57' E 023°35'0 0.0
2018-Feb-19 23:29N 37°57' E 023°35'0 0.0
2018-Feb-19 22:59N 37°57' E 023°35'0 0.0
2018-Feb-19 22:29N 37°57' E 023°35'0 0.0
2018-Feb-19 21:59N 37°57' E 023°35'0 0.0
2018-Feb-19 21:29N 37°57' E 023°35'0 0.0
2018-Feb-19 20:59N 37°57' E 023°35'0 0.0
2018-Feb-19 20:29N 37°57' E 023°35'0 0.0
2018-Feb-19 19:59N 37°57' E 023°35'0 0.0
2018-Feb-19 19:29N 37°57' E 023°35'0 0.0
2018-Feb-19 18:59N 37°57' E 023°35'0 0.0
2018-Feb-19 18:29N 37°57' E 023°35'0 0.0
2018-Feb-19 17:59N 37°57' E 023°35'0 0.0
2018-Feb-19 17:29N 37°57' E 023°35'0 0.0
2018-Feb-19 16:59N 37°57' E 023°35'0 0.0
2018-Feb-19 16:29N 37°57' E 023°35'0 0.0
2018-Feb-19 15:59N 37°57' E 023°35'0 0.0
2018-Feb-19 15:29N 37°57' E 023°35'0 0.0
2018-Feb-19 14:59N 37°57' E 023°35'0 0.0
2018-Feb-19 14:29N 37°57' E 023°35'0 0.0
2018-Feb-19 13:59N 37°57' E 023°35'0 0.0
2018-Feb-19 13:29N 37°57' E 023°35'0 0.0
2018-Feb-19 12:59N 37°57' E 023°35'0 0.0
2018-Feb-19 12:29N 37°57' E 023°35'0 0.0
2018-Feb-19 11:56N 37°57' E 023°35'0 0.0
2018-Feb-19 11:29N 37°57' E 023°35'0 0.0
2018-Feb-19 10:59N 37°57' E 023°35'0 0.0
2018-Feb-19 10:29N 37°57' E 023°35'0 0.0
2018-Feb-19 09:59N 37°57' E 023°35'0 0.0
2018-Feb-19 09:29N 37°57' E 023°35'0 0.0
2018-Feb-19 08:59N 37°57' E 023°35'0 0.0
2018-Feb-19 08:29N 37°57' E 023°35'0 0.0
2018-Feb-19 07:59N 37°57' E 023°35'0 0.0
2018-Feb-19 07:29N 37°57' E 023°35'0 0.0
2018-Feb-19 06:59N 37°57' E 023°35'0 0.0
2018-Feb-19 06:29N 37°57' E 023°35'0 0.0
2018-Feb-19 05:59N 37°57' E 023°35'0 0.0
2018-Feb-19 05:29N 37°57' E 023°35'0 0.0
2018-Feb-19 04:59N 37°57' E 023°35'0 0.0
2018-Feb-19 04:29N 37°57' E 023°35'0 0.0
2018-Feb-19 03:59N 37°57' E 023°35'0 0.0
2018-Feb-19 03:29N 37°57' E 023°35'0 0.0
2018-Feb-19 02:59N 37°57' E 023°35'0 0.0
2018-Feb-19 02:29N 37°57' E 023°35'0 0.0
2018-Feb-19 01:59N 37°57' E 023°35'0 0.0
2018-Feb-19 01:29N 37°57' E 023°35'0 0.0
2018-Feb-19 00:59N 37°57' E 023°35'0 0.0
2018-Feb-19 00:29N 37°57' E 023°35'0 0.0
2018-Feb-18 23:59N 37°57' E 023°35'0 0.0
2018-Feb-18 23:29N 37°57' E 023°35'0 0.0
2018-Feb-18 22:59N 37°57' E 023°35'0 0.0
2018-Feb-18 22:29N 37°57' E 023°35'0 0.0
2018-Feb-18 21:59N 37°57' E 023°35'0 0.0
2018-Feb-18 21:29N 37°57' E 023°35'0 0.0
2018-Feb-18 20:59N 37°57' E 023°35'0 0.0
2018-Feb-18 20:30N 37°57' E 023°35'0 0.1
2018-Feb-18 20:00N 37°57' E 023°35'2 3.8
2018-Feb-18 19:30N 37°55' E 023°35'1 1.4
2018-Feb-18 19:00N 37°55' E 023°35'2 3.9
2018-Feb-18 18:30N 37°53' E 023°33'0 0.2
2018-Feb-18 17:59N 37°53' E 023°33'0 0.1
2018-Feb-18 17:29N 37°53' E 023°33'0 0.1
2018-Feb-18 16:59N 37°53' E 023°33'0 0.0
2018-Feb-18 16:29N 37°53' E 023°33'0 0.0
2018-Feb-18 15:59N 37°53' E 023°33'0 0.1
2018-Feb-18 15:29N 37°53' E 023°33'0 0.0
2018-Feb-18 14:59N 37°53' E 023°33'0 0.0
2018-Feb-18 14:29N 37°53' E 023°33'0 0.1
2018-Feb-18 13:59N 37°53' E 023°33'0 0.1
2018-Feb-18 13:29N 37°53' E 023°33'0 0.1
2018-Feb-18 12:59N 37°53' E 023°33'0 0.0
2018-Feb-18 12:29N 37°53' E 023°33'0 0.0
2018-Feb-18 11:59N 37°53' E 023°33'0 0.0
2018-Feb-18 11:29N 37°53' E 023°33'0 0.1
2018-Feb-18 10:59N 37°53' E 023°33'0 0.1
2018-Feb-18 10:29N 37°53' E 023°33'0 0.1
2018-Feb-18 09:59N 37°53' E 023°33'0 0.2
2018-Feb-18 09:29N 37°53' E 023°33'0 0.1
2018-Feb-18 08:59N 37°53' E 023°33'0 0.0
2018-Feb-18 08:29N 37°53' E 023°33'0 0.1
2018-Feb-18 07:59N 37°53' E 023°33'0 0.0
2018-Feb-18 07:29N 37°53' E 023°33'0 0.1
2018-Feb-18 06:59N 37°53' E 023°33'0 0.1
2018-Feb-18 06:29N 37°53' E 023°33'0 0.1
2018-Feb-18 05:59N 37°53' E 023°33'0 0.0
2018-Feb-18 05:29N 37°53' E 023°33'0 0.0
2018-Feb-18 04:59N 37°53' E 023°33'0 0.1
2018-Feb-18 04:29N 37°53' E 023°33'0 0.0
2018-Feb-18 03:59N 37°53' E 023°33'0 0.0
2018-Feb-18 03:29N 37°53' E 023°33'0 0.0
2018-Feb-18 02:59N 37°53' E 023°33'0 0.1
2018-Feb-18 02:29N 37°53' E 023°33'0 0.2
2018-Feb-18 01:59N 37°53' E 023°33'0 0.1
2018-Feb-18 01:29N 37°53' E 023°33'0 0.1
2018-Feb-18 00:59N 37°53' E 023°33'0 0.1
2018-Feb-18 00:29N 37°53' E 023°33'0 0.1
2018-Feb-17 23:59N 37°53' E 023°33'0 0.1
2018-Feb-17 23:29N 37°53' E 023°33'0 0.1
2018-Feb-17 22:59N 37°53' E 023°33'0 0.0
2018-Feb-17 22:29N 37°53' E 023°33'0 0.1
2018-Feb-17 21:59N 37°53' E 023°33'0 0.0
2018-Feb-17 21:29N 37°53' E 023°33'0 0.0
2018-Feb-17 20:59N 37°53' E 023°33'0 0.1
2018-Feb-17 20:29N 37°53' E 023°33'0 0.0
2018-Feb-17 19:59N 37°53' E 023°33'0 0.0
2018-Feb-17 19:29N 37°53' E 023°33'0 0.0
2018-Feb-17 18:59N 37°53' E 023°33'0 0.0
2018-Feb-17 18:29N 37°53' E 023°33'0 0.0
2018-Feb-17 17:59N 37°53' E 023°33'0 0.0
2018-Feb-17 17:29N 37°53' E 023°33'0 0.0
2018-Feb-17 16:59N 37°53' E 023°33'0 0.1
2018-Feb-17 16:29N 37°53' E 023°33'0 0.1
2018-Feb-17 15:59N 37°53' E 023°33'0 0.0
2018-Feb-17 15:29N 37°53' E 023°33'0 0.1
2018-Feb-17 14:59N 37°53' E 023°33'0 0.1
2018-Feb-17 14:29N 37°53' E 023°33'0 0.0
2018-Feb-17 13:59N 37°53' E 023°33'0 0.1
2018-Feb-17 13:29N 37°53' E 023°33'0 0.1
2018-Feb-17 12:59N 37°53' E 023°33'0 0.1
2018-Feb-17 12:29N 37°53' E 023°33'0 0.1
2018-Feb-17 11:59N 37°53' E 023°33'0 0.0
2018-Feb-17 11:29N 37°53' E 023°33'0 0.0
2018-Feb-17 10:59N 37°53' E 023°33'0 0.1
2018-Feb-17 10:29N 37°53' E 023°33'0 0.0
2018-Feb-17 09:59N 37°53' E 023°33'0 0.1
2018-Feb-17 09:29N 37°53' E 023°33'0 0.1
2018-Feb-17 08:59N 37°53' E 023°33'0 0.1
2018-Feb-17 08:29N 37°53' E 023°33'0 0.0
2018-Feb-17 07:59N 37°53' E 023°33'0 0.0
2018-Feb-17 07:29N 37°53' E 023°33'0 0.1
2018-Feb-17 06:59N 37°53' E 023°33'0 0.1
2018-Feb-17 06:29N 37°53' E 023°33'0 0.1
2018-Feb-17 05:59N 37°53' E 023°33'0 0.0
2018-Feb-17 05:29N 37°53' E 023°33'0 0.1
2018-Feb-17 04:59N 37°53' E 023°33'0 0.1
2018-Feb-17 04:29N 37°53' E 023°33'0 0.1
2018-Feb-17 03:59N 37°53' E 023°33'0 0.1
2018-Feb-17 03:29N 37°53' E 023°33'0 0.1
2018-Feb-17 02:59N 37°53' E 023°33'0 0.1
2018-Feb-17 02:29N 37°53' E 023°33'0 0.0
2018-Feb-17 01:59N 37°53' E 023°33'0 0.1
2018-Feb-17 01:29N 37°53' E 023°33'0 0.2
2018-Feb-17 00:59N 37°53' E 023°33'0 0.2
2018-Feb-17 00:29N 37°53' E 023°33'0 0.1
2018-Feb-16 23:59N 37°53' E 023°33'0 0.1
2018-Feb-16 23:29N 37°53' E 023°33'0 0.0
2018-Feb-16 22:59N 37°53' E 023°33'0 0.1
2018-Feb-16 22:29N 37°53' E 023°33'0 0.0
2018-Feb-16 21:59N 37°53' E 023°33'0 0.1
2018-Feb-16 21:29N 37°53' E 023°33'0 0.1
2018-Feb-16 20:59N 37°53' E 023°33'0 0.1
2018-Feb-16 20:29N 37°53' E 023°33'0 0.2
2018-Feb-16 19:59N 37°53' E 023°33'0 0.2
2018-Feb-16 19:29N 37°53' E 023°33'0 0.2
2018-Feb-16 18:59N 37°53' E 023°33'0 0.2
2018-Feb-16 18:29N 37°53' E 023°33'0 0.1
2018-Feb-16 17:59N 37°53' E 023°33'0 0.1
2018-Feb-16 17:29N 37°53' E 023°33'0 0.1
2018-Feb-16 16:59N 37°53' E 023°33'0 0.1
2018-Feb-16 16:29N 37°53' E 023°33'0 0.2
2018-Feb-16 15:59N 37°53' E 023°33'0 0.0
2018-Feb-16 15:29N 37°53' E 023°33'0 0.0
2018-Feb-16 14:59N 37°53' E 023°33'0 0.1
2018-Feb-16 14:29N 37°53' E 023°33'0 0.2
2018-Feb-16 13:59N 37°53' E 023°33'0 0.1
2018-Feb-16 13:29N 37°53' E 023°33'0 0.0
2018-Feb-16 12:59N 37°53' E 023°33'0 0.2
2018-Feb-16 12:29N 37°53' E 023°33'0 0.2
2018-Feb-16 11:59N 37°53' E 023°33'0 0.1
2018-Feb-16 11:29N 37°53' E 023°33'0 0.0
2018-Feb-16 10:59N 37°53' E 023°33'0 0.0
2018-Feb-16 10:29N 37°53' E 023°33'0 0.1
2018-Feb-16 09:59N 37°53' E 023°33'0 0.2
2018-Feb-16 09:29N 37°53' E 023°33'0 0.1
2018-Feb-16 08:59N 37°53' E 023°33'0 0.0
2018-Feb-16 08:29N 37°53' E 023°33'0 0.1
2018-Feb-16 07:59N 37°53' E 023°33'0 0.0
2018-Feb-16 07:29N 37°53' E 023°33'0 0.1
2018-Feb-16 06:59N 37°53' E 023°33'0 0.2
2018-Feb-16 06:29N 37°53' E 023°33'0 0.0
2018-Feb-16 05:59N 37°53' E 023°33'0 0.0
2018-Feb-16 05:29N 37°53' E 023°33'0 0.0
2018-Feb-16 04:59N 37°53' E 023°33'0 0.1
2018-Feb-16 04:29N 37°53' E 023°33'0 0.1
2018-Feb-16 03:59N 37°53' E 023°33'0 0.2
2018-Feb-16 03:29N 37°53' E 023°33'0 0.1
2018-Feb-16 02:59N 37°53' E 023°33'0 0.1
2018-Feb-16 02:29N 37°53' E 023°33'0 0.1
2018-Feb-16 01:59N 37°53' E 023°33'0 0.0
2018-Feb-16 01:29N 37°53' E 023°33'0 0.0
2018-Feb-16 00:59N 37°53' E 023°33'0 0.1
2018-Feb-16 00:29N 37°53' E 023°33'0 0.0
2018-Feb-15 23:59N 37°53' E 023°33'0 0.2
2018-Feb-15 23:29N 37°53' E 023°33'0 0.2
2018-Feb-15 22:59N 37°53' E 023°33'0 0.2
2018-Feb-15 22:29N 37°53' E 023°33'0 0.0
2018-Feb-15 21:59N 37°53' E 023°33'0 0.1
2018-Feb-15 21:29N 37°53' E 023°33'0 0.2
2018-Feb-15 20:59N 37°53' E 023°33'0 0.1
2018-Feb-15 20:29N 37°53' E 023°33'0 0.0
2018-Feb-15 19:59N 37°53' E 023°33'0 0.1
2018-Feb-15 19:29N 37°53' E 023°33'0 0.1
2018-Feb-15 18:59N 37°53' E 023°33'0 0.1
2018-Feb-15 18:29N 37°53' E 023°33'0 0.1
2018-Feb-15 17:59N 37°53' E 023°33'0 0.0
2018-Feb-15 17:29N 37°53' E 023°33'0 0.0
2018-Feb-15 16:59N 37°53' E 023°33'0 0.1
2018-Feb-15 16:29N 37°53' E 023°33'0 0.2
2018-Feb-15 15:59N 37°53' E 023°33'0 0.2
2018-Feb-15 15:29N 37°53' E 023°33'0 0.2
2018-Feb-15 14:59N 37°53' E 023°33'0 0.1
2018-Feb-15 14:29N 37°53' E 023°33'0 0.1
2018-Feb-15 13:59N 37°53' E 023°33'0 0.1
2018-Feb-15 13:29N 37°53' E 023°33'0 0.1
2018-Feb-15 12:59N 37°53' E 023°33'0 0.0
2018-Feb-15 12:26N 37°53' E 023°33'0 0.1
2018-Feb-15 11:59N 37°53' E 023°33'0 0.1
2018-Feb-15 11:29N 37°53' E 023°33'0 0.0
2018-Feb-15 10:59N 37°53' E 023°33'0 0.0
2018-Feb-15 10:29N 37°53' E 023°33'0 0.1
2018-Feb-15 09:59N 37°53' E 023°33'0 0.0
2018-Feb-15 09:29N 37°53' E 023°33'0 0.0
2018-Feb-15 08:59N 37°53' E 023°33'0 0.5
2018-Feb-15 08:29N 37°53' E 023°33'0 0.2
2018-Feb-15 07:59N 37°53' E 023°33'0 0.1
2018-Feb-15 07:29N 37°53' E 023°33'0 0.0
2018-Feb-15 06:59N 37°53' E 023°33'0 0.0
2018-Feb-15 06:23N 37°53' E 023°33'0 0.0
2018-Feb-15 05:59N 37°53' E 023°33'0 0.2
2018-Feb-15 05:29N 37°53' E 023°33'0 0.0
2018-Feb-15 04:59N 37°53' E 023°33'0 0.0
2018-Feb-15 04:29N 37°53' E 023°33'0 0.1
2018-Feb-15 03:59N 37°53' E 023°33'0 0.1
2018-Feb-15 03:17N 37°53' E 023°33'0 0.0
2018-Feb-15 02:56N 37°53' E 023°33'0 0.2
2018-Feb-15 02:29N 37°53' E 023°33'0 0.4
2018-Feb-15 01:59N 37°53' E 023°33'2 3.2
2018-Feb-15 01:30N 37°52' E 023°35'510.4
2018-Feb-15 01:00N 37°49' E 023°40'713.7
2018-Feb-15 00:29N 37°43' E 023°44'713.6
2018-Feb-15 00:00N 37°37' E 023°47'33311.9
2018-Feb-13 19:55N 35°47' E 030°20'270 5.5
2018-Feb-11 18:32N 32°57' E 034°35'113.0
2018-Feb-11 18:29N 32°57' E 034°36'613.0
2018-Feb-11 18:00N 32°56' E 034°43'713.0
2018-Feb-11 17:30N 32°54' E 034°51'612.8
2018-Feb-11 17:00N 32°52' E 034°58'2 0.1
2018-Feb-10 13:06N 32°51' E 034°60'0 4.0
2018-Feb-10 12:59N 32°51' E 034°59'1 2.2
2018-Feb-10 12:28N 32°52' E 034°59'0 0.6
2018-Feb-10 11:58N 32°52' E 034°58'2 3.3
2018-Feb-10 11:30N 32°54' E 034°59'0 0.1
2018-Feb-10 07:11N 32°54' E 034°59'0 0.1
2018-Feb-10 06:59N 32°54' E 034°59'  
Track history (hours):
 
Tides and Currents Weather Stations Pressure Air Temp Water Temp Dewpoint Dewpoint Depression Visibility Wind Speed Wind Dir Waves Ship Positions

Diamantis P

Last reported at 2018-Feb-20 06:33 UTC. Time now 2018-Feb-24 15:41 UTC.
Position N 37°39' E 023°43'.

Length 188 m; draft 9.2 m.

Type: Cargo ship. MMSI: 636014699.

Date/timePositionNaut miles runAvg speedWind from/ knotsBaromVisibWave heightAir tempDewpointWater temp
2018-Feb-20 06:33N 37°39' E 023°43'114.0
2018-Feb-20 06:30N 37°40' E 023°42'714.2
2018-Feb-20 06:01N 37°46' E 023°38'714.0
2018-Feb-20 05:30N 37°53' E 023°37'4 8.7
2018-Feb-20 05:00N 37°57' E 023°35'0 0.5
2018-Feb-20 04:29N 37°57' E 023°35'0 0.0
2018-Feb-20 03:59N 37°57' E 023°35'0 0.0
2018-Feb-20 03:29N 37°57' E 023°35'0 0.0
2018-Feb-20 02:59N 37°57' E 023°35'0 0.0
2018-Feb-20 02:29N 37°57' E 023°35'0 0.0
2018-Feb-20 01:59N 37°57' E 023°35'0 0.0
2018-Feb-20 01:29N 37°57' E 023°35'0 0.0
2018-Feb-20 00:59N 37°57' E 023°35'0 0.0
2018-Feb-20 00:29N 37°57' E 023°35'0 0.0
2018-Feb-19 23:59N 37°57' E 023°35'0 0.0
2018-Feb-19 23:29N 37°57' E 023°35'0 0.0
2018-Feb-19 22:59N 37°57' E 023°35'0 0.0
2018-Feb-19 22:29N 37°57' E 023°35'0 0.0
2018-Feb-19 21:59N 37°57' E 023°35'0 0.0
2018-Feb-19 21:29N 37°57' E 023°35'0 0.0
2018-Feb-19 20:59N 37°57' E 023°35'0 0.0
2018-Feb-19 20:29N 37°57' E 023°35'0 0.0
2018-Feb-19 19:59N 37°57' E 023°35'0 0.0
2018-Feb-19 19:29N 37°57' E 023°35'0 0.0
2018-Feb-19 18:59N 37°57' E 023°35'0 0.0
2018-Feb-19 18:29N 37°57' E 023°35'0 0.0
2018-Feb-19 17:59N 37°57' E 023°35'0 0.0
2018-Feb-19 17:29N 37°57' E 023°35'0 0.0
2018-Feb-19 16:59N 37°57' E 023°35'0 0.0
2018-Feb-19 16:29N 37°57' E 023°35'0 0.0
2018-Feb-19 15:59N 37°57' E 023°35'0 0.0
2018-Feb-19 15:29N 37°57' E 023°35'0 0.0
2018-Feb-19 14:59N 37°57' E 023°35'0 0.0
2018-Feb-19 14:29N 37°57' E 023°35'0 0.0
2018-Feb-19 13:59N 37°57' E 023°35'0 0.0
2018-Feb-19 13:29N 37°57' E 023°35'0 0.0
2018-Feb-19 12:59N 37°57' E 023°35'0 0.0
2018-Feb-19 12:29N 37°57' E 023°35'0 0.0
2018-Feb-19 11:56N 37°57' E 023°35'0 0.0
2018-Feb-19 11:29N 37°57' E 023°35'0 0.0
2018-Feb-19 10:59N 37°57' E 023°35'0 0.0
2018-Feb-19 10:29N 37°57' E 023°35'0 0.0
2018-Feb-19 09:59N 37°57' E 023°35'0 0.0
2018-Feb-19 09:29N 37°57' E 023°35'0 0.0
2018-Feb-19 08:59N 37°57' E 023°35'0 0.0
2018-Feb-19 08:29N 37°57' E 023°35'0 0.0
2018-Feb-19 07:59N 37°57' E 023°35'0 0.0
2018-Feb-19 07:29N 37°57' E 023°35'0 0.0
2018-Feb-19 06:59N 37°57' E 023°35'0 0.0
2018-Feb-19 06:29N 37°57' E 023°35'0 0.0
2018-Feb-19 05:59N 37°57' E 023°35'0 0.0
2018-Feb-19 05:29N 37°57' E 023°35'0 0.0
2018-Feb-19 04:59N 37°57' E 023°35'0 0.0
2018-Feb-19 04:29N 37°57' E 023°35'0 0.0
2018-Feb-19 03:59N 37°57' E 023°35'0 0.0
2018-Feb-19 03:29N 37°57' E 023°35'0 0.0
2018-Feb-19 02:59N 37°57' E 023°35'0 0.0
2018-Feb-19 02:29N 37°57' E 023°35'0 0.0
2018-Feb-19 01:59N 37°57' E 023°35'0 0.0
2018-Feb-19 01:29N 37°57' E 023°35'0 0.0
2018-Feb-19 00:59N 37°57' E 023°35'0 0.0
2018-Feb-19 00:29N 37°57' E 023°35'0 0.0
2018-Feb-18 23:59N 37°57' E 023°35'0 0.0
2018-Feb-18 23:29N 37°57' E 023°35'0 0.0
2018-Feb-18 22:59N 37°57' E 023°35'0 0.0
2018-Feb-18 22:29N 37°57' E 023°35'0 0.0
2018-Feb-18 21:59N 37°57' E 023°35'0 0.0
2018-Feb-18 21:29N 37°57' E 023°35'0 0.0
2018-Feb-18 20:59N 37°57' E 023°35'0 0.0
2018-Feb-18 20:30N 37°57' E 023°35'0 0.1
2018-Feb-18 20:00N 37°57' E 023°35'2 3.8
2018-Feb-18 19:30N 37°55' E 023°35'1 1.4
2018-Feb-18 19:00N 37°55' E 023°35'2 3.9
2018-Feb-18 18:30N 37°53' E 023°33'0 0.2
2018-Feb-18 17:59N 37°53' E 023°33'0 0.1
2018-Feb-18 17:29N 37°53' E 023°33'0 0.1
2018-Feb-18 16:59N 37°53' E 023°33'0 0.0
2018-Feb-18 16:29N 37°53' E 023°33'0 0.0
2018-Feb-18 15:59N 37°53' E 023°33'0 0.1
2018-Feb-18 15:29N 37°53' E 023°33'0 0.0
2018-Feb-18 14:59N 37°53' E 023°33'0 0.0
2018-Feb-18 14:29N 37°53' E 023°33'0 0.1
2018-Feb-18 13:59N 37°53' E 023°33'0 0.1
2018-Feb-18 13:29N 37°53' E 023°33'0 0.1
2018-Feb-18 12:59N 37°53' E 023°33'0 0.0
2018-Feb-18 12:29N 37°53' E 023°33'0 0.0
2018-Feb-18 11:59N 37°53' E 023°33'0 0.0
2018-Feb-18 11:29N 37°53' E 023°33'0 0.1
2018-Feb-18 10:59N 37°53' E 023°33'0 0.1
2018-Feb-18 10:29N 37°53' E 023°33'0 0.1
2018-Feb-18 09:59N 37°53' E 023°33'0 0.2
2018-Feb-18 09:29N 37°53' E 023°33'0 0.1
2018-Feb-18 08:59N 37°53' E 023°33'0 0.0
2018-Feb-18 08:29N 37°53' E 023°33'0 0.1
2018-Feb-18 07:59N 37°53' E 023°33'0 0.0
2018-Feb-18 07:29N 37°53' E 023°33'0 0.1
2018-Feb-18 06:59N 37°53' E 023°33'0 0.1
2018-Feb-18 06:29N 37°53' E 023°33'0 0.1
2018-Feb-18 05:59N 37°53' E 023°33'0 0.0
2018-Feb-18 05:29N 37°53' E 023°33'0 0.0
2018-Feb-18 04:59N 37°53' E 023°33'0 0.1
2018-Feb-18 04:29N 37°53' E 023°33'0 0.0
2018-Feb-18 03:59N 37°53' E 023°33'0 0.0
2018-Feb-18 03:29N 37°53' E 023°33'0 0.0
2018-Feb-18 02:59N 37°53' E 023°33'0 0.1
2018-Feb-18 02:29N 37°53' E 023°33'0 0.2
2018-Feb-18 01:59N 37°53' E 023°33'0 0.1
2018-Feb-18 01:29N 37°53' E 023°33'0 0.1
2018-Feb-18 00:59N 37°53' E 023°33'0 0.1
2018-Feb-18 00:29N 37°53' E 023°33'0 0.1
2018-Feb-17 23:59N 37°53' E 023°33'0 0.1
2018-Feb-17 23:29N 37°53' E 023°33'0 0.1
2018-Feb-17 22:59N 37°53' E 023°33'0 0.0
2018-Feb-17 22:29N 37°53' E 023°33'0 0.1
2018-Feb-17 21:59N 37°53' E 023°33'0 0.0
2018-Feb-17 21:29N 37°53' E 023°33'0 0.0
2018-Feb-17 20:59N 37°53' E 023°33'0 0.1
2018-Feb-17 20:29N 37°53' E 023°33'0 0.0
2018-Feb-17 19:59N 37°53' E 023°33'0 0.0
2018-Feb-17 19:29N 37°53' E 023°33'0 0.0
2018-Feb-17 18:59N 37°53' E 023°33'0 0.0
2018-Feb-17 18:29N 37°53' E 023°33'0 0.0
2018-Feb-17 17:59N 37°53' E 023°33'0 0.0
2018-Feb-17 17:29N 37°53' E 023°33'0 0.0
2018-Feb-17 16:59N 37°53' E 023°33'0 0.1
2018-Feb-17 16:29N 37°53' E 023°33'0 0.1
2018-Feb-17 15:59N 37°53' E 023°33'0 0.0
2018-Feb-17 15:29N 37°53' E 023°33'0 0.1
2018-Feb-17 14:59N 37°53' E 023°33'0 0.1
2018-Feb-17 14:29N 37°53' E 023°33'0 0.0
2018-Feb-17 13:59N 37°53' E 023°33'0 0.1
2018-Feb-17 13:29N 37°53' E 023°33'0 0.1
2018-Feb-17 12:59N 37°53' E 023°33'0 0.1
2018-Feb-17 12:29N 37°53' E 023°33'0 0.1
2018-Feb-17 11:59N 37°53' E 023°33'0 0.0
2018-Feb-17 11:29N 37°53' E 023°33'0 0.0
2018-Feb-17 10:59N 37°53' E 023°33'0 0.1
2018-Feb-17 10:29N 37°53' E 023°33'0 0.0
2018-Feb-17 09:59N 37°53' E 023°33'0 0.1
2018-Feb-17 09:29N 37°53' E 023°33'0 0.1
2018-Feb-17 08:59N 37°53' E 023°33'0 0.1
2018-Feb-17 08:29N 37°53' E 023°33'0 0.0
2018-Feb-17 07:59N 37°53' E 023°33'0 0.0
2018-Feb-17 07:29N 37°53' E 023°33'0 0.1
2018-Feb-17 06:59N 37°53' E 023°33'0 0.1
2018-Feb-17 06:29N 37°53' E 023°33'0 0.1
2018-Feb-17 05:59N 37°53' E 023°33'0 0.0
2018-Feb-17 05:29N 37°53' E 023°33'0 0.1
2018-Feb-17 04:59N 37°53' E 023°33'0 0.1
2018-Feb-17 04:29N 37°53' E 023°33'0 0.1
2018-Feb-17 03:59N 37°53' E 023°33'0 0.1
2018-Feb-17 03:29N 37°53' E 023°33'0 0.1
2018-Feb-17 02:59N 37°53' E 023°33'0 0.1
2018-Feb-17 02:29N 37°53' E 023°33'0 0.0
2018-Feb-17 01:59N 37°53' E 023°33'0 0.1
2018-Feb-17 01:29N 37°53' E 023°33'0 0.2
2018-Feb-17 00:59N 37°53' E 023°33'0 0.2
2018-Feb-17 00:29N 37°53' E 023°33'0 0.1
2018-Feb-16 23:59N 37°53' E 023°33'0 0.1
2018-Feb-16 23:29N 37°53' E 023°33'0 0.0
2018-Feb-16 22:59N 37°53' E 023°33'0 0.1
2018-Feb-16 22:29N 37°53' E 023°33'0 0.0
2018-Feb-16 21:59N 37°53' E 023°33'0 0.1
2018-Feb-16 21:29N 37°53' E 023°33'0 0.1
2018-Feb-16 20:59N 37°53' E 023°33'0 0.1
2018-Feb-16 20:29N 37°53' E 023°33'0 0.2
2018-Feb-16 19:59N 37°53' E 023°33'0 0.2
2018-Feb-16 19:29N 37°53' E 023°33'0 0.2
2018-Feb-16 18:59N 37°53' E 023°33'0 0.2
2018-Feb-16 18:29N 37°53' E 023°33'0 0.1
2018-Feb-16 17:59N 37°53' E 023°33'0 0.1
2018-Feb-16 17:29N 37°53' E 023°33'0 0.1
2018-Feb-16 16:59N 37°53' E 023°33'0 0.1
2018-Feb-16 16:29N 37°53' E 023°33'0 0.2
2018-Feb-16 15:59N 37°53' E 023°33'0 0.0
2018-Feb-16 15:29N 37°53' E 023°33'0 0.0
2018-Feb-16 14:59N 37°53' E 023°33'0 0.1
2018-Feb-16 14:29N 37°53' E 023°33'0 0.2
2018-Feb-16 13:59N 37°53' E 023°33'0 0.1
2018-Feb-16 13:29N 37°53' E 023°33'0 0.0
2018-Feb-16 12:59N 37°53' E 023°33'0 0.2
2018-Feb-16 12:29N 37°53' E 023°33'0 0.2
2018-Feb-16 11:59N 37°53' E 023°33'0 0.1
2018-Feb-16 11:29N 37°53' E 023°33'0 0.0
2018-Feb-16 10:59N 37°53' E 023°33'0 0.0
2018-Feb-16 10:29N 37°53' E 023°33'0 0.1
2018-Feb-16 09:59N 37°53' E 023°33'0 0.2
2018-Feb-16 09:29N 37°53' E 023°33'0 0.1
2018-Feb-16 08:59N 37°53' E 023°33'0 0.0
2018-Feb-16 08:29N 37°53' E 023°33'0 0.1
2018-Feb-16 07:59N 37°53' E 023°33'0 0.0
2018-Feb-16 07:29N 37°53' E 023°33'0 0.1
2018-Feb-16 06:59N 37°53' E 023°33'0 0.2
2018-Feb-16 06:29N 37°53' E 023°33'0 0.0
2018-Feb-16 05:59N 37°53' E 023°33'0 0.0
2018-Feb-16 05:29N 37°53' E 023°33'0 0.0
2018-Feb-16 04:59N 37°53' E 023°33'0 0.1
2018-Feb-16 04:29N 37°53' E 023°33'0 0.1
2018-Feb-16 03:59N 37°53' E 023°33'0 0.2
2018-Feb-16 03:29N 37°53' E 023°33'0 0.1
2018-Feb-16 02:59N 37°53' E 023°33'0 0.1
2018-Feb-16 02:29N 37°53' E 023°33'0 0.1
2018-Feb-16 01:59N 37°53' E 023°33'0 0.0
2018-Feb-16 01:29N 37°53' E 023°33'0 0.0
2018-Feb-16 00:59N 37°53' E 023°33'0 0.1
2018-Feb-16 00:29N 37°53' E 023°33'0 0.0
2018-Feb-15 23:59N 37°53' E 023°33'0 0.2
2018-Feb-15 23:29N 37°53' E 023°33'0 0.2
2018-Feb-15 22:59N 37°53' E 023°33'0 0.2
2018-Feb-15 22:29N 37°53' E 023°33'0 0.0
2018-Feb-15 21:59N 37°53' E 023°33'0 0.1
2018-Feb-15 21:29N 37°53' E 023°33'0 0.2
2018-Feb-15 20:59N 37°53' E 023°33'0 0.1
2018-Feb-15 20:29N 37°53' E 023°33'0 0.0
2018-Feb-15 19:59N 37°53' E 023°33'0 0.1
2018-Feb-15 19:29N 37°53' E 023°33'0 0.1
2018-Feb-15 18:59N 37°53' E 023°33'0 0.1
2018-Feb-15 18:29N 37°53' E 023°33'0 0.1
2018-Feb-15 17:59N 37°53' E 023°33'0 0.0
2018-Feb-15 17:29N 37°53' E 023°33'0 0.0
2018-Feb-15 16:59N 37°53' E 023°33'0 0.1
2018-Feb-15 16:29N 37°53' E 023°33'0 0.2
2018-Feb-15 15:59N 37°53' E 023°33'0 0.2
2018-Feb-15 15:29N 37°53' E 023°33'0 0.2
2018-Feb-15 14:59N 37°53' E 023°33'0 0.1
2018-Feb-15 14:29N 37°53' E 023°33'0 0.1
2018-Feb-15 13:59N 37°53' E 023°33'0 0.1
2018-Feb-15 13:29N 37°53' E 023°33'0 0.1
2018-Feb-15 12:59N 37°53' E 023°33'0 0.0
2018-Feb-15 12:26N 37°53' E 023°33'0 0.1
2018-Feb-15 11:59N 37°53' E 023°33'0 0.1
2018-Feb-15 11:29N 37°53' E 023°33'0 0.0
2018-Feb-15 10:59N 37°53' E 023°33'0 0.0
2018-Feb-15 10:29N 37°53' E 023°33'0 0.1
2018-Feb-15 09:59N 37°53' E 023°33'0 0.0
2018-Feb-15 09:29N 37°53' E 023°33'0 0.0
2018-Feb-15 08:59N 37°53' E 023°33'0 0.5
2018-Feb-15 08:29N 37°53' E 023°33'0 0.2
2018-Feb-15 07:59N 37°53' E 023°33'0 0.1
2018-Feb-15 07:29N 37°53' E 023°33'0 0.0
2018-Feb-15 06:59N 37°53' E 023°33'0 0.0
2018-Feb-15 06:23N 37°53' E 023°33'0 0.0
2018-Feb-15 05:59N 37°53' E 023°33'0 0.2
2018-Feb-15 05:29N 37°53' E 023°33'0 0.0
2018-Feb-15 04:59N 37°53' E 023°33'0 0.0
2018-Feb-15 04:29N 37°53' E 023°33'0 0.1
2018-Feb-15 03:59N 37°53' E 023°33'0 0.1
2018-Feb-15 03:17N 37°53' E 023°33'0 0.0
2018-Feb-15 02:56N 37°53' E 023°33'0 0.2
2018-Feb-15 02:29N 37°53' E 023°33'0 0.4
2018-Feb-15 01:59N 37°53' E 023°33'2 3.2
2018-Feb-15 01:30N 37°52' E 023°35'510.4
2018-Feb-15 01:00N 37°49' E 023°40'713.7
2018-Feb-15 00:29N 37°43' E 023°44'713.6
2018-Feb-15 00:00N 37°37' E 023°47'33311.9
2018-Feb-13 19:55N 35°47' E 030°20'270 5.5
2018-Feb-11 18:32N 32°57' E 034°35'113.0
2018-Feb-11 18:29N 32°57' E 034°36'613.0
2018-Feb-11 18:00N 32°56' E 034°43'713.0
2018-Feb-11 17:30N 32°54' E 034°51'612.8
2018-Feb-11 17:00N 32°52' E 034°58'2 0.1
2018-Feb-10 13:06N 32°51' E 034°60'0 4.0
2018-Feb-10 12:59N 32°51' E 034°59'1 2.2
2018-Feb-10 12:28N 32°52' E 034°59'0 0.6
2018-Feb-10 11:58N 32°52' E 034°58'2 3.3
2018-Feb-10 11:30N 32°54' E 034°59'0 0.1
2018-Feb-10 07:11N 32°54' E 034°59'0 0.1
2018-Feb-10 06:59N 32°54' E 034°59'  

Dump ship's entire track history